Jena, Florida
Current Conditions -  °F | °C
As of 7:55 AM on Saturday 20 Dec 2014 (Local Time) from K40J Reporting Station
Drizzle Drizzle  
Wind Chill: 52°   Ceiling: 9000
Heat Index: 52°   Visibility: 10mi
Dew Point: 48°   Wind: 0mph
Humidity: 86%   Direction: NA
Pressure: 30.13"   Gusts: NA
Location:  29.6015°N, 83.3311°W
Report Text: K40J 201255Z AUTO 00000KT 10SM -DZ OVC090 11/09 A3013 RMK AO2 T01120090
Loading
Personal Weather Stations






























Interactive Weather Map New forecast layout! Learn more

10-Day Weather Forecast

Advertisements
Track Severe Weather on mobile